Time;durP1;ratioP1;P1;durP2;ratioP2;P2;SDS_P1;SDS_P2;PMS_P1;PMS_P2;Temp;Humidity;BMP_temperature;BMP_pressure;BME280_temperature;BME280_humidity;BME280_pressure;Samples;Min_cycle;Max_cycle;Signal;HPM_P1;HPM_P2
2023/07/21 00:00:47;;;;;;;6.63;4.75;;;;;;;;;;5065801;28;20056;-79
2023/07/21 00:03:13;;;;;;;5.55;4.45;;;;;;;;;;5065423;28;20048;-79
2023/07/21 00:05:39;;;;;;;7.43;4.57;;;;;;;;;;5046226;28;20032;-79
2023/07/21 00:08:09;;;;;;;9.25;6.15;;;;;;;;;;5066975;28;20022;-79
2023/07/21 00:10:35;;;;;;;9.05;5.90;;;;;;;;;;5066285;28;20043;-79
2023/07/21 00:13:21;;;;;;;12.30;6.05;;;;;;;;;;5065404;28;20674;-79
2023/07/21 00:15:49;;;;;;;9.25;6.03;;;;;;;;;;5066070;28;20051;-79
2023/07/21 00:18:15;;;;;;;8.27;4.75;;;;;;;;;;5065379;28;20037;-79
2023/07/21 00:20:47;;;;;;;5.95;4.47;;;;;;;;;;5064772;28;20047;-79
2023/07/21 00:23:12;;;;;;;6.72;4.65;;;;;;;;;;5066499;28;20505;-79
2023/07/21 00:25:46;;;;;;;6.60;4.45;;;;;;;;;;5063078;28;20040;-80
2023/07/21 00:28:13;;;;;;;6.43;4.53;;;;;;;;;;5084262;28;20043;-79
2023/07/21 00:31:13;;;;;;;5.97;4.60;;;;;;;;;;5067168;28;20043;-79
2023/07/21 00:33:44;;;;;;;6.32;4.53;;;;;;;;;;5063231;28;20052;-79
2023/07/21 00:36:13;;;;;;;8.25;5.00;;;;;;;;;;5060924;28;20036;-79
2023/07/21 00:38:40;;;;;;;7.30;4.97;;;;;;;;;;5085489;28;20115;-79
2023/07/21 00:41:06;;;;;;;6.95;4.90;;;;;;;;;;5085237;28;20048;-79
2023/07/21 00:43:51;;;;;;;8.68;5.15;;;;;;;;;;5086078;28;20055;-79
2023/07/21 00:46:28;;;;;;;6.75;5.15;;;;;;;;;;5083647;28;20035;-79
2023/07/21 00:48:56;;;;;;;8.27;5.35;;;;;;;;;;5067379;28;20032;-79
2023/07/21 00:51:25;;;;;;;9.95;5.30;;;;;;;;;;5085405;28;20040;-79
2023/07/21 00:53:51;;;;;;;10.63;5.45;;;;;;;;;;5086479;28;20113;-79
2023/07/21 00:56:19;;;;;;;9.25;5.55;;;;;;;;;;5085766;28;20066;-80
2023/07/21 00:58:51;;;;;;;8.75;5.97;;;;;;;;;;5067114;28;20130;-79
2023/07/21 01:01:22;;;;;;;8.85;5.88;;;;;;;;;;5041786;28;20047;-79
2023/07/21 01:03:55;;;;;;;10.50;5.47;;;;;;;;;;5082607;28;20231;-79
2023/07/21 01:06:27;;;;;;;7.90;5.60;;;;;;;;;;5083875;28;20040;-79
2023/07/21 01:08:58;;;;;;;9.82;5.47;;;;;;;;;;5084847;28;20024;-79
2023/07/21 01:11:27;;;;;;;10.15;5.70;;;;;;;;;;5079272;28;20103;-79
2023/07/21 01:14:24;;;;;;;9.30;5.85;;;;;;;;;;5065826;28;20047;-79
2023/07/21 01:16:52;;;;;;;8.07;5.43;;;;;;;;;;5065030;28;20028;-79
2023/07/21 01:19:18;;;;;;;8.50;5.30;;;;;;;;;;5045868;28;20098;-81
2023/07/21 01:21:54;;;;;;;9.52;5.43;;;;;;;;;;5064906;28;20032;-80
2023/07/21 01:24:37;;;;;;;9.55;5.47;;;;;;;;;;5064777;28;20526;-79
2023/07/21 01:27:05;;;;;;;8.63;5.45;;;;;;;;;;5074475;28;20035;-80
2023/07/21 01:29:37;;;;;;;9.23;5.60;;;;;;;;;;5084940;28;20020;-80
2023/07/21 01:32:10;;;;;;;8.90;5.60;;;;;;;;;;5086847;28;20012;-79
2023/07/21 01:34:38;;;;;;;8.23;5.50;;;;;;;;;;5084859;28;20051;-80
2023/07/21 01:37:09;;;;;;;8.43;5.75;;;;;;;;;;5083474;28;20055;-80
2023/07/21 01:39:36;;;;;;;9.07;4.97;;;;;;;;;;5082402;28;20574;-79
2023/07/21 01:42:09;;;;;;;6.88;4.90;;;;;;;;;;5048824;28;20032;-79
2023/07/21 01:44:38;;;;;;;6.40;5.07;;;;;;;;;;5084912;28;20129;-79
2023/07/21 01:47:09;;;;;;;6.65;5.20;;;;;;;;;;5085275;28;20028;-79
2023/07/21 01:49:34;;;;;;;7.07;5.05;;;;;;;;;;5084564;28;20024;-80
2023/07/21 01:52:04;;;;;;;7.40;4.97;;;;;;;;;;5085098;28;20055;-79
2023/07/21 02:01:00;;;;;;;8.57;4.82;;;;;;;;;;5085070;28;20123;-79
2023/07/21 02:03:27;;;;;;;6.32;4.78;;;;;;;;;;5084539;28;20075;-79
2023/07/21 02:05:53;;;;;;;8.70;5.07;;;;;;;;;;5083492;28;20111;-79
2023/07/21 02:08:21;;;;;;;8.20;5.35;;;;;;;;;;5067031;28;20055;-79
2023/07/21 02:10:52;;;;;;;8.15;5.50;;;;;;;;;;5063880;28;20119;-79
2023/07/21 02:13:17;;;;;;;7.35;4.75;;;;;;;;;;5064539;28;20024;-79
2023/07/21 02:15:59;;;;;;;7.55;4.93;;;;;;;;;;5047290;28;20037;-79
2023/07/21 02:18:25;;;;;;;7.07;5.30;;;;;;;;;;5068050;28;20052;-79
2023/07/21 02:20:51;;;;;;;9.55;5.05;;;;;;;;;;5063814;28;20059;-80
2023/07/21 02:23:16;;;;;;;8.00;5.03;;;;;;;;;;5070196;28;20029;-79
2023/07/21 02:25:46;;;;;;;8.25;5.95;;;;;;;;;;5068583;28;20063;-79
2023/07/21 02:28:12;;;;;;;11.85;6.85;;;;;;;;;;5087264;28;20044;-79
2023/07/21 02:30:48;;;;;;;10.15;6.57;;;;;;;;;;5089170;28;20036;-79
2023/07/21 02:33:17;;;;;;;9.85;6.00;;;;;;;;;;5086245;28;20126;-79
2023/07/21 02:35:43;;;;;;;8.48;5.60;;;;;;;;;;5087820;28;20028;-79
2023/07/21 02:38:12;;;;;;;12.00;6.63;;;;;;;;;;5070654;28;20077;-79
2023/07/21 02:44:23;;;;;;;12.88;6.60;;;;;;;;;;4918199;29;20521;-79
2023/07/21 02:46:49;;;;;;;10.68;6.80;;;;;;;;;;5003435;28;20046;-79
2023/07/21 02:49:16;;;;;;;11.45;7.28;;;;;;;;;;5046031;28;20071;-79
2023/07/21 02:51:45;;;;;;;8.32;5.93;;;;;;;;;;5047495;28;20037;-79
2023/07/21 02:54:11;;;;;;;10.15;6.10;;;;;;;;;;5045963;28;20697;-79
2023/07/21 02:56:37;;;;;;;9.77;6.10;;;;;;;;;;5043913;28;20479;-79
2023/07/21 02:59:04;;;;;;;9.38;6.30;;;;;;;;;;5047784;28;20021;-79
2023/07/21 03:01:35;;;;;;;10.80;5.95;;;;;;;;;;5047489;28;20048;-79
2023/07/21 03:04:05;;;;;;;7.75;5.47;;;;;;;;;;5044438;28;20045;-79
2023/07/21 03:06:42;;;;;;;13.23;7.47;;;;;;;;;;5028934;28;20053;-79
2023/07/21 03:12:38;;;;;;;10.15;6.28;;;;;;;;;;4956301;28;20070;-80
2023/07/21 03:15:08;;;;;;;8.75;5.75;;;;;;;;;;5034917;28;20117;-80
2023/07/21 03:18:17;;;;;;;10.88;6.13;;;;;;;;;;5038331;28;20123;-79
2023/07/21 03:20:44;;;;;;;8.23;5.50;;;;;;;;;;5055834;28;20040;-80
2023/07/21 03:23:55;;;;;;;8.82;5.63;;;;;;;;;;5069131;28;20033;-79
2023/07/21 03:26:42;;;;;;;11.50;5.93;;;;;;;;;;4970740;28;20034;-80
2023/07/21 03:29:11;;;;;;;9.48;5.75;;;;;;;;;;5024714;28;20499;-79
2023/07/21 03:31:37;;;;;;;9.38;5.97;;;;;;;;;;5060514;28;20048;-79
2023/07/21 03:34:04;;;;;;;11.07;6.18;;;;;;;;;;5071491;28;20049;-80
2023/07/21 03:36:29;;;;;;;12.60;6.72;;;;;;;;;;5068593;28;20084;-81
2023/07/21 03:38:55;;;;;;;14.20;6.45;;;;;;;;;;5087245;28;20043;-79
2023/07/21 03:41:24;;;;;;;11.32;6.35;;;;;;;;;;5068670;28;20128;-80
2023/07/21 03:43:58;;;;;;;11.43;5.97;;;;;;;;;;5069245;28;20434;-81
2023/07/21 03:46:24;;;;;;;13.10;6.45;;;;;;;;;;5086660;28;20104;-79
2023/07/21 03:48:52;;;;;;;10.90;6.65;;;;;;;;;;5082248;28;20047;-80
2023/07/21 03:51:18;;;;;;;10.07;6.28;;;;;;;;;;5086523;28;20044;-80
2023/07/21 03:53:47;;;;;;;8.50;5.90;;;;;;;;;;5087503;28;20406;-79
2023/07/21 03:56:13;;;;;;;11.88;6.13;;;;;;;;;;5082700;28;20023;-79
2023/07/21 03:58:38;;;;;;;10.88;6.72;;;;;;;;;;5086855;28;20036;-80
2023/07/21 04:01:04;;;;;;;8.80;6.03;;;;;;;;;;5086652;28;20089;-79
2023/07/21 04:03:33;;;;;;;9.18;6.18;;;;;;;;;;5067095;28;20129;-80
2023/07/21 04:06:05;;;;;;;10.32;6.45;;;;;;;;;;5086260;28;20047;-80
2023/07/21 04:08:38;;;;;;;12.93;6.10;;;;;;;;;;5086142;28;20024;-79
2023/07/21 04:11:07;;;;;;;10.57;6.22;;;;;;;;;;5086854;28;20473;-79
2023/07/21 04:14:24;;;;;;;;;;;;;;;;;;;;;
2023/07/21 04:16:56;;;;;;;12.88;6.38;;;;;;;;;;4983459;28;20057;-80
2023/07/21 04:19:33;;;;;;;11.63;6.80;;;;;;;;;;4984095;28;20050;-79
2023/07/21 04:22:00;;;;;;;11.38;6.32;;;;;;;;;;5034325;28;20047;-79
2023/07/21 04:24:26;;;;;;;12.45;7.32;;;;;;;;;;5066912;28;20793;-79
2023/07/21 04:26:53;;;;;;;15.98;7.85;;;;;;;;;;5078355;28;20067;-79
2023/07/21 04:29:19;;;;;;;16.40;8.57;;;;;;;;;;5066877;28;20102;-80
2023/07/21 04:31:47;;;;;;;12.68;7.70;;;;;;;;;;5065622;28;20558;-79
2023/07/21 04:34:16;;;;;;;10.75;6.72;;;;;;;;;;5065390;28;20041;-80
2023/07/21 04:36:42;;;;;;;12.05;7.00;;;;;;;;;;5065782;28;20051;-79
2023/07/21 04:39:07;;;;;;;10.70;6.32;;;;;;;;;;5064123;28;20037;-79
2023/07/21 04:41:37;;;;;;;11.00;6.90;;;;;;;;;;5045514;28;20106;-79
2023/07/21 04:44:08;;;;;;;13.13;6.97;;;;;;;;;;5066559;28;20075;-80
2023/07/21 04:46:34;;;;;;;13.00;7.53;;;;;;;;;;5064653;28;20039;-79
2023/07/21 04:49:00;;;;;;;12.40;7.05;;;;;;;;;;5063031;28;20048;-79
2023/07/21 04:51:30;;;;;;;14.80;7.43;;;;;;;;;;5065346;28;20040;-79
2023/07/21 04:54:02;;;;;;;11.23;6.93;;;;;;;;;;5064979;28;20627;-79
2023/07/21 04:56:28;;;;;;;13.50;7.50;;;;;;;;;;5065505;28;20029;-79
2023/07/21 04:59:46;;;;;;;;;;;;;;;;;;;;;
2023/07/21 05:01:43;;;;;;;11.73;6.85;;;;;;;;;;5022125;28;20045;-79
2023/07/21 05:04:09;;;;;;;14.23;7.70;;;;;;;;;;5065564;28;20036;-79
2023/07/21 05:06:35;;;;;;;15.98;8.45;;;;;;;;;;5065815;28;20048;-79
2023/07/21 05:09:03;;;;;;;17.73;8.30;;;;;;;;;;5065509;28;20094;-80
2023/07/21 05:11:29;;;;;;;16.15;9.18;;;;;;;;;;5055694;28;20089;-79
2023/07/21 05:13:58;;;;;;;13.13;8.30;;;;;;;;;;5086777;28;20047;-79
2023/07/21 05:16:25;;;;;;;13.73;8.43;;;;;;;;;;5064653;28;20039;-79
2023/07/21 05:18:51;;;;;;;17.92;9.18;;;;;;;;;;5085488;28;20054;-80
2023/07/21 05:21:18;;;;;;;15.48;8.63;;;;;;;;;;5066539;28;20143;-79
2023/07/21 05:23:44;;;;;;;17.70;9.70;;;;;;;;;;5082059;28;20020;-79
2023/07/21 05:26:13;;;;;;;14.82;9.57;;;;;;;;;;5083025;28;20020;-79
2023/07/21 05:28:41;;;;;;;17.08;9.50;;;;;;;;;;5064839;28;20033;-79
2023/07/21 05:31:12;;;;;;;17.23;10.45;;;;;;;;;;5046657;28;20074;-79
2023/07/21 05:33:38;;;;;;;19.35;10.00;;;;;;;;;;5046908;28;20048;-79
2023/07/21 05:36:09;;;;;;;17.90;10.25;;;;;;;;;;5052580;28;20033;-79
2023/07/21 05:38:37;;;;;;;21.60;11.70;;;;;;;;;;5064768;28;20119;-79
2023/07/21 05:41:54;;;;;;;;;;;;;;;;;;;;;
2023/07/21 05:44:29;;;;;;;22.30;12.38;;;;;;;;;;5059441;28;20039;-79
2023/07/21 05:46:59;;;;;;;24.13;12.65;;;;;;;;;;5065370;28;20436;-80
2023/07/21 05:49:25;;;;;;;21.75;12.52;;;;;;;;;;5063188;28;20093;-80
2023/07/21 05:51:54;;;;;;;25.25;12.60;;;;;;;;;;5063271;28;20040;-79
2023/07/21 05:54:19;;;;;;;23.52;13.85;;;;;;;;;;5062431;28;20038;-80
2023/07/21 05:56:52;;;;;;;25.73;14.10;;;;;;;;;;5064335;28;20044;-79
2023/07/21 05:59:17;;;;;;;25.33;12.93;;;;;;;;;;5065368;28;20025;-79
2023/07/21 06:01:43;;;;;;;22.70;13.15;;;;;;;;;;5046964;28;20492;-79
2023/07/21 06:04:11;;;;;;;27.08;13.93;;;;;;;;;;5063695;28;20036;-79
2023/07/21 06:06:40;;;;;;;25.92;13.65;;;;;;;;;;5071527;28;20037;-79
2023/07/21 06:09:38;;;;;;;23.33;13.60;;;;;;;;;;5065579;28;20454;-79
2023/07/21 06:12:08;;;;;;;25.92;13.10;;;;;;;;;;5055307;28;20051;-79
2023/07/21 06:14:34;;;;;;;24.35;12.90;;;;;;;;;;5073462;28;20043;-79
2023/07/21 06:17:00;;;;;;;24.98;12.57;;;;;;;;;;5084098;28;20024;-79
2023/07/21 06:19:34;;;;;;;25.55;13.30;;;;;;;;;;5085211;28;20028;-79
2023/07/21 06:22:16;;;;;;;;;;;;;;;;;;;;;
2023/07/21 06:25:05;;;;;;;;;;;;;;;;;;;;;
2023/07/21 06:27:33;;;;;;;24.67;12.88;;;;;;;;;;5069902;28;20042;-80
2023/07/21 06:30:22;;;;;;;19.58;11.68;;;;;;;;;;5084816;28;20119;-79
2023/07/21 06:32:48;;;;;;;21.92;11.80;;;;;;;;;;5048698;28;20043;-79
2023/07/21 06:35:35;;;;;;;19.42;11.63;;;;;;;;;;5066158;28;20778;-79
2023/07/21 06:38:01;;;;;;;20.92;11.52;;;;;;;;;;5083231;28;20047;-79
2023/07/21 06:40:30;;;;;;;19.35;10.98;;;;;;;;;;5083259;28;20048;-80
2023/07/21 06:43:00;;;;;;;20.83;11.00;;;;;;;;;;5082677;28;20039;-79
2023/07/21 06:45:26;;;;;;;17.73;10.35;;;;;;;;;;5080389;28;20035;-79
2023/07/21 06:47:52;;;;;;;16.83;9.15;;;;;;;;;;5071263;28;20039;-79
2023/07/21 06:50:20;;;;;;;17.95;9.90;;;;;;;;;;5064338;28;20036;-79
2023/07/21 06:52:55;;;;;;;19.83;9.98;;;;;;;;;;5044879;28;20044;-79
2023/07/21 06:55:21;;;;;;;17.45;9.57;;;;;;;;;;5064591;28;20033;-79
2023/07/21 07:00:43;;;;;;;18.20;8.95;;;;;;;;;;5035655;28;20048;-79
2023/07/21 07:03:09;;;;;;;15.70;9.07;;;;;;;;;;5044958;28;20036;-79
2023/07/21 07:05:59;;;;;;;18.65;8.25;;;;;;;;;;5066920;28;20020;-79
2023/07/21 07:08:24;;;;;;;15.07;8.20;;;;;;;;;;5058472;28;20040;-79
2023/07/21 07:10:51;;;;;;;15.45;8.40;;;;;;;;;;5068892;28;20037;-79
2023/07/21 07:13:17;;;;;;;13.43;7.72;;;;;;;;;;5058683;28;20070;-79
2023/07/21 07:15:53;;;;;;;14.68;8.15;;;;;;;;;;5065472;28;20577;-78
2023/07/21 07:18:19;;;;;;;13.30;8.27;;;;;;;;;;5085950;28;20040;-79
2023/07/21 07:20:52;;;;;;;15.50;8.65;;;;;;;;;;5086236;28;20352;-79
2023/07/21 07:23:21;;;;;;;15.00;7.60;;;;;;;;;;5067923;28;20050;-79
2023/07/21 07:26:28;;;;;;;17.40;8.18;;;;;;;;;;5087212;28;20055;-79
2023/07/21 07:28:59;;;;;;;12.65;8.02;;;;;;;;;;5048519;28;20594;-79
2023/07/21 07:31:25;;;;;;;14.05;7.53;;;;;;;;;;5048216;28;20060;-79
2023/07/21 07:33:50;;;;;;;15.70;7.78;;;;;;;;;;5066827;28;20130;-79
2023/07/21 07:36:19;;;;;;;9.63;6.18;;;;;;;;;;5075038;28;20489;-79
2023/07/21 07:41:52;;;;;;;;;;;;;;;;;;;;;
2023/07/21 07:44:21;;;;;;;11.75;7.10;;;;;;;;;;5004182;28;20029;-78
2023/07/21 07:46:47;;;;;;;12.00;6.05;;;;;;;;;;5043783;28;20502;-79
2023/07/21 07:49:14;;;;;;;9.93;5.80;;;;;;;;;;5055648;28;20132;-78
2023/07/21 07:51:40;;;;;;;10.20;5.65;;;;;;;;;;5059048;28;20044;-79
2023/07/21 07:54:07;;;;;;;8.57;5.05;;;;;;;;;;5061421;28;20033;-79
2023/07/21 07:56:46;;;;;;;10.57;5.03;;;;;;;;;;5057270;28;20113;-79
2023/07/21 07:59:11;;;;;;;8.75;4.82;;;;;;;;;;5055094;28;20110;-79
2023/07/21 08:01:37;;;;;;;15.50;4.75;;;;;;;;;;5055290;28;20543;-79
2023/07/21 08:04:03;;;;;;;9.13;4.45;;;;;;;;;;5046890;28;20036;-79
2023/07/21 08:06:28;;;;;;;8.55;4.10;;;;;;;;;;5053977;28;20490;-79
2023/07/21 08:08:55;;;;;;;11.43;4.68;;;;;;;;;;5065227;28;20478;-79
2023/07/21 08:11:20;;;;;;;7.20;3.75;;;;;;;;;;5058881;28;20100;-79
2023/07/21 08:13:46;;;;;;;6.88;3.80;;;;;;;;;;5049783;28;20128;-79
2023/07/21 08:16:13;;;;;;;5.53;3.50;;;;;;;;;;5046758;28;20059;-79
2023/07/21 08:18:39;;;;;;;5.78;3.38;;;;;;;;;;5063580;28;20044;-79
2023/07/21 08:21:23;;;;;;;7.38;3.72;;;;;;;;;;5062839;28;20044;-79
2023/07/21 08:23:50;;;;;;;;;;;;;;;;;;5064948;28;20040;-79
2023/07/21 08:26:17;;;;;;;7.80;3.25;;;;;;;;;;5048550;28;20448;-78
2023/07/21 08:28:43;;;;;;;6.50;2.97;;;;;;;;;;5035533;28;20045;-78
2023/07/21 08:31:12;;;;;;;3.72;2.50;;;;;;;;;;5033577;28;20145;-79
2023/07/21 08:34:10;;;;;;;5.47;3.00;;;;;;;;;;5054347;28;20432;-79
2023/07/21 08:36:41;;;;;;;3.58;2.65;;;;;;;;;;5051795;28;20060;-79
2023/07/21 08:39:30;;;;;;;4.72;3.15;;;;;;;;;;5060357;28;20055;-78
2023/07/21 08:42:00;;;;;;;7.30;2.90;;;;;;;;;;5050146;28;20101;-78
2023/07/21 08:44:32;;;;;;;4.97;2.00;;;;;;;;;;5064967;28;20021;-78
2023/07/21 08:47:00;;;;;;;4.10;2.67;;;;;;;;;;5064495;28;20024;-79
2023/07/21 08:49:26;;;;;;;5.22;2.50;;;;;;;;;;5060348;28;20109;-79
2023/07/21 08:52:21;;;;;;;4.40;2.45;;;;;;;;;;5056526;28;20055;-79
2023/07/21 08:54:48;;;;;;;3.60;2.38;;;;;;;;;;5056902;28;20757;-78
2023/07/21 08:57:15;;;;;;;3.67;1.90;;;;;;;;;;5051382;28;20069;-78
2023/07/21 09:00:25;;;;;;;4.55;2.00;;;;;;;;;;5049191;28;20036;-78
2023/07/21 09:03:31;;;;;;;;;;;;;;;;;;;;;
2023/07/21 09:06:43;;;;;;;7.25;2.83;;;;;;;;;;5040076;28;20051;-78
2023/07/21 09:09:17;;;;;;;3.67;2.35;;;;;;;;;;5050883;28;20036;-77
2023/07/21 09:11:43;;;;;;;5.80;2.80;;;;;;;;;;5050369;28;20033;-78
2023/07/21 09:14:09;;;;;;;4.68;2.80;;;;;;;;;;5046448;28;20051;-78
2023/07/21 09:20:10;;;;;;;4.40;2.92;;;;;;;;;;4953435;28;20066;-79
2023/07/21 09:22:44;;;;;;;4.65;2.00;;;;;;;;;;5053852;28;21429;-79
2023/07/21 09:25:18;;;;;;;;;;;;;;;;;;5049087;28;20040;-79
2023/07/21 09:27:53;;;;;;;4.75;2.10;;;;;;;;;;5052736;28;19924;-78
2023/07/21 09:30:23;;;;;;;2.58;2.30;;;;;;;;;;5054709;28;20033;-78
2023/07/21 09:33:01;;;;;;;3.90;2.33;;;;;;;;;;5056248;28;20410;-78
2023/07/21 09:38:14;;;;;;;3.33;2.10;;;;;;;;;;5044039;28;20867;-77
2023/07/21 09:40:48;;;;;;;3.83;2.33;;;;;;;;;;5035523;28;20087;-77
2023/07/21 09:43:15;;;;;;;5.07;2.40;;;;;;;;;;5032539;28;20094;-76
2023/07/21 09:45:42;;;;;;;5.38;2.20;;;;;;;;;;5029336;28;20045;-78
2023/07/21 09:48:25;;;;;;;3.67;2.92;;;;;;;;;;5012903;28;20219;-77
2023/07/21 09:50:52;;;;;;;4.97;3.55;;;;;;;;;;5037575;28;20550;-77
2023/07/21 09:56:46;;;;;;;4.47;2.80;;;;;;;;;;5029393;28;20068;-77
2023/07/21 09:59:11;;;;;;;4.72;3.00;;;;;;;;;;5036558;28;20052;-77
2023/07/21 10:05:32;;;;;;;4.10;2.97;;;;;;;;;;4945344;28;20049;-77
2023/07/21 10:08:03;;;;;;;5.00;2.40;;;;;;;;;;4940376;28;20592;-77
2023/07/21 10:10:30;;;;;;;8.70;2.97;;;;;;;;;;4974655;28;20065;-77
2023/07/21 10:12:57;;;;;;;5.00;2.70;;;;;;;;;;5003180;28;20173;-77
2023/07/21 10:15:31;;;;;;;3.03;2.30;;;;;;;;;;5038120;28;20098;-77
2023/07/21 10:18:16;;;;;;;2.75;2.10;;;;;;;;;;5018443;28;20048;-77
2023/07/21 10:20:44;;;;;;;3.65;2.22;;;;;;;;;;5061220;28;20746;-78
2023/07/21 10:23:39;;;;;;;5.95;2.33;;;;;;;;;;5057609;28;20047;-77
2023/07/21 10:26:07;;;;;;;5.10;2.25;;;;;;;;;;5032023;28;20068;-77
2023/07/21 10:28:42;;;;;;;6.60;2.38;;;;;;;;;;5042738;28;20079;-77
2023/07/21 10:31:24;;;;;;;4.40;2.50;;;;;;;;;;5061822;28;20128;-77
2023/07/21 10:37:21;;;;;;;5.50;2.42;;;;;;;;;;5023030;28;20125;-77
2023/07/21 10:39:57;;;;;;;4.25;2.95;;;;;;;;;;5055275;28;20452;-77
2023/07/21 10:42:23;;;;;;;6.55;4.13;;;;;;;;;;5073570;28;20054;-77
2023/07/21 10:49:11;;;;;;;7.53;5.15;;;;;;;;;;4935132;28;20058;-79
2023/07/21 10:51:15;;;;;;;12.48;5.43;;;;;;;;;;4991540;28;20053;-78
2023/07/21 10:53:40;;;;;;;10.98;5.63;;;;;;;;;;5061799;28;20135;-78
2023/07/21 10:56:07;;;;;;;11.50;5.15;;;;;;;;;;5078211;28;20103;-79
2023/07/21 10:58:34;;;;;;;10.70;5.43;;;;;;;;;;5083298;28;20072;-78
2023/07/21 11:00:59;;;;;;;9.75;5.97;;;;;;;;;;5075753;28;20055;-79
2023/07/21 11:03:27;;;;;;;9.63;5.47;;;;;;;;;;5074167;28;20040;-79
2023/07/21 11:05:53;;;;;;;7.32;4.95;;;;;;;;;;5075161;28;20095;-78
2023/07/21 11:08:28;;;;;;;10.27;5.25;;;;;;;;;;5084709;28;20032;-79
2023/07/21 11:10:54;;;;;;;6.68;4.45;;;;;;;;;;5073883;28;20044;-79
2023/07/21 11:13:40;;;;;;;5.80;3.70;;;;;;;;;;5072115;28;20089;-79
2023/07/21 11:16:05;;;;;;;10.27;4.60;;;;;;;;;;5073759;28;20129;-79
2023/07/21 11:18:49;;;;;;;6.38;4.38;;;;;;;;;;5075231;28;20071;-78
2023/07/21 11:21:15;;;;;;;6.47;4.32;;;;;;;;;;5077299;28;20036;-79
2023/07/21 11:23:40;;;;;;;8.20;4.18;;;;;;;;;;5079465;28;20627;-78
2023/07/21 11:26:09;;;;;;;8.60;4.88;;;;;;;;;;5072465;28;20028;-78
2023/07/21 11:28:37;;;;;;;8.88;4.72;;;;;;;;;;5076963;28;20416;-79
2023/07/21 11:31:13;;;;;;;10.27;5.30;;;;;;;;;;5077285;28;20078;-78
2023/07/21 11:33:42;;;;;;;8.10;5.05;;;;;;;;;;5074581;28;20047;-79
2023/07/21 11:36:19;;;;;;;4.95;3.67;;;;;;;;;;5070625;28;20040;-79
2023/07/21 11:39:11;;;;;;;4.72;2.83;;;;;;;;;;5075250;28;20029;-79
2023/07/21 11:41:51;;;;;;;5.32;3.13;;;;;;;;;;5078897;28;20040;-79
2023/07/21 11:44:35;;;;;;;5.45;2.97;;;;;;;;;;5075807;28;20017;-79
2023/07/21 11:47:07;;;;;;;;;;;;;;;;;;5053090;28;20040;-79
2023/07/21 11:49:38;;;;;;;4.80;3.15;;;;;;;;;;5075298;28;20466;-79
2023/07/21 11:52:05;;;;;;;7.72;3.70;;;;;;;;;;5075914;28;20063;-79
2023/07/21 11:54:42;;;;;;;6.32;3.38;;;;;;;;;;5073985;28;20576;-79
2023/07/21 11:57:10;;;;;;;6.93;4.10;;;;;;;;;;5063590;28;20048;-79
2023/07/21 11:59:39;;;;;;;5.82;4.07;;;;;;;;;;5084589;28;20047;-79
2023/07/21 12:02:07;;;;;;;6.72;4.30;;;;;;;;;;5078737;28;20024;-79
2023/07/21 12:04:45;;;;;;;6.45;4.60;;;;;;;;;;5063787;28;20045;-79
2023/07/21 12:07:11;;;;;;;11.30;5.05;;;;;;;;;;5081925;28;20513;-78
2023/07/21 12:09:38;;;;;;;7.85;5.28;;;;;;;;;;5071251;28;20039;-79
2023/07/21 12:12:05;;;;;;;6.68;4.63;;;;;;;;;;5073722;28;20055;-78
2023/07/21 12:14:34;;;;;;;6.85;4.72;;;;;;;;;;5071234;28;20750;-78
2023/07/21 12:17:00;;;;;;;8.70;5.68;;;;;;;;;;5071818;28;20775;-78
2023/07/21 12:19:26;;;;;;;9.48;5.50;;;;;;;;;;5067387;28;20116;-78
2023/07/21 12:21:53;;;;;;;8.57;5.55;;;;;;;;;;5077124;28;20035;-79
2023/07/21 12:24:26;;;;;;;9.32;5.82;;;;;;;;;;5071597;28;20557;-79
2023/07/21 12:26:51;;;;;;;;;;;;;;;;;;5051416;28;20051;-79
2023/07/21 12:29:17;;;;;;;11.52;6.50;;;;;;;;;;5084969;28;19912;-79
2023/07/21 12:31:50;;;;;;;11.75;6.93;;;;;;;;;;5085244;28;20044;-79
2023/07/21 12:34:16;;;;;;;11.60;7.72;;;;;;;;;;5083733;28;20046;-79
2023/07/21 12:36:42;;;;;;;11.23;7.15;;;;;;;;;;5083064;28;20036;-79
2023/07/21 12:39:34;;;;;;;14.02;7.55;;;;;;;;;;5082963;28;20067;-79
2023/07/21 12:42:02;;;;;;;14.25;8.10;;;;;;;;;;5057967;28;20048;-79
2023/07/21 12:44:28;;;;;;;15.45;8.07;;;;;;;;;;5059726;28;20033;-79
2023/07/21 12:46:54;;;;;;;18.88;8.13;;;;;;;;;;5084869;28;20051;-79
2023/07/21 12:49:19;;;;;;;12.65;7.32;;;;;;;;;;5071164;28;20040;-78
2023/07/21 12:51:45;;;;;;;14.27;7.93;;;;;;;;;;5062818;28;20083;-79
2023/07/21 12:54:11;;;;;;;12.00;7.18;;;;;;;;;;5062738;28;20550;-78
2023/07/21 12:56:36;;;;;;;13.93;7.00;;;;;;;;;;5066213;28;20020;-78
2023/07/21 12:59:02;;;;;;;11.40;6.80;;;;;;;;;;5083218;28;20032;-79
2023/07/21 13:01:30;;;;;;;11.68;6.78;;;;;;;;;;5083795;28;20052;-79
2023/07/21 13:04:01;;;;;;;10.32;6.10;;;;;;;;;;5084782;28;20057;-79
2023/07/21 13:06:27;;;;;;;9.70;6.38;;;;;;;;;;5083970;28;20126;-79
2023/07/21 13:08:56;;;;;;;10.45;6.32;;;;;;;;;;5085355;28;20185;-78
2023/07/21 13:11:21;;;;;;;11.10;5.13;;;;;;;;;;5079390;28;20111;-80
2023/07/21 13:13:50;;;;;;;11.02;5.05;;;;;;;;;;5065901;28;20131;-79
2023/07/21 13:16:16;;;;;;;8.13;4.43;;;;;;;;;;5081425;28;20048;-78
2023/07/21 13:18:42;;;;;;;7.55;4.35;;;;;;;;;;5078970;28;20047;-78
2023/07/21 13:21:13;;;;;;;7.13;4.55;;;;;;;;;;5055562;28;20043;-78
2023/07/21 13:24:03;;;;;;;8.75;4.28;;;;;;;;;;5071180;28;20046;-78
2023/07/21 13:26:33;;;;;;;7.57;4.65;;;;;;;;;;5061638;28;20028;-78
2023/07/21 13:29:11;;;;;;;9.70;5.00;;;;;;;;;;5070482;28;20020;-78
2023/07/21 13:31:37;;;;;;;7.75;3.95;;;;;;;;;;5073233;28;20052;-78
2023/07/21 13:34:03;;;;;;;9.75;4.20;;;;;;;;;;5068837;28;20040;-79
2023/07/21 13:36:34;;;;;;;5.82;3.50;;;;;;;;;;5058108;28;20050;-78
2023/07/21 13:39:00;;;;;;;7.03;4.13;;;;;;;;;;5071786;28;20098;-78
2023/07/21 13:41:29;;;;;;;7.28;3.38;;;;;;;;;;5055190;28;20510;-79
2023/07/21 13:43:55;;;;;;;7.97;3.83;;;;;;;;;;5053421;28;20024;-78
2023/07/21 13:46:23;;;;;;;6.63;3.38;;;;;;;;;;5045509;28;20103;-78
2023/07/21 13:48:49;;;;;;;6.75;3.75;;;;;;;;;;5032618;28;20587;-78
2023/07/21 13:51:14;;;;;;;7.38;3.75;;;;;;;;;;5045228;28;20052;-77
2023/07/21 13:53:40;;;;;;;9.35;3.88;;;;;;;;;;5051207;28;20082;-77
2023/07/21 13:56:14;;;;;;;6.68;3.80;;;;;;;;;;5046005;28;20036;-79
2023/07/21 13:58:51;;;;;;;7.65;4.10;;;;;;;;;;5054937;28;20033;-78
2023/07/21 14:01:17;;;;;;;6.82;3.65;;;;;;;;;;5052935;28;20081;-78
2023/07/21 14:03:46;;;;;;;7.82;4.32;;;;;;;;;;5061998;28;20087;-78
2023/07/21 14:06:12;;;;;;;9.23;4.32;;;;;;;;;;5062425;28;20048;-78
2023/07/21 14:08:38;;;;;;;7.38;4.28;;;;;;;;;;5063887;28;20024;-78
2023/07/21 14:11:06;;;;;;;5.93;3.95;;;;;;;;;;5064822;28;20066;-78
2023/07/21 14:13:31;;;;;;;10.68;4.40;;;;;;;;;;5052831;28;20465;-79
2023/07/21 14:15:58;;;;;;;6.65;4.20;;;;;;;;;;5057499;28;20429;-79
2023/07/21 14:18:23;;;;;;;6.57;3.97;;;;;;;;;;5053967;28;20066;-78
2023/07/21 14:20:52;;;;;;;11.48;4.78;;;;;;;;;;5057892;28;20451;-78
2023/07/21 14:23:19;;;;;;;7.07;4.50;;;;;;;;;;5067247;28;20115;-78
2023/07/21 14:25:48;;;;;;;6.55;4.18;;;;;;;;;;5066300;28;20040;-79
2023/07/21 14:28:17;;;;;;;5.13;3.45;;;;;;;;;;5083323;28;20055;-79
2023/07/21 14:30:48;;;;;;;7.60;4.53;;;;;;;;;;5065755;28;20041;-78
2023/07/21 14:33:16;;;;;;;6.28;3.72;;;;;;;;;;5054160;28;20135;-78
2023/07/21 14:35:41;;;;;;;5.57;3.80;;;;;;;;;;5052922;28;20086;-78
2023/07/21 14:38:15;;;;;;;7.22;3.95;;;;;;;;;;5052760;28;20044;-78
2023/07/21 14:40:41;;;;;;;7.43;3.90;;;;;;;;;;5055924;28;20062;-78
2023/07/21 14:43:07;;;;;;;11.38;4.38;;;;;;;;;;5055721;28;20089;-77
2023/07/21 14:45:33;;;;;;;5.60;3.47;;;;;;;;;;5077417;28;20641;-78
2023/07/21 14:48:02;;;;;;;5.43;3.25;;;;;;;;;;5087715;28;20044;-79
2023/07/21 14:50:28;;;;;;;6.25;3.50;;;;;;;;;;5087474;28;20058;-78
2023/07/21 14:52:53;;;;;;;6.43;3.53;;;;;;;;;;5087711;28;20059;-78
2023/07/21 14:55:19;;;;;;;6.95;3.90;;;;;;;;;;5076069;28;20072;-78
2023/07/21 14:57:47;;;;;;;5.10;3.35;;;;;;;;;;5071503;28;20044;-78
2023/07/21 15:00:20;;;;;;;6.95;3.67;;;;;;;;;;5077045;28;20079;-78
2023/07/21 15:02:48;;;;;;;5.00;3.40;;;;;;;;;;5073275;28;20483;-78
2023/07/21 15:05:14;;;;;;;5.38;3.38;;;;;;;;;;5080604;28;20036;-78
2023/07/21 15:07:41;;;;;;;5.40;2.97;;;;;;;;;;5083735;28;20090;-79
2023/07/21 15:10:12;;;;;;;6.63;3.38;;;;;;;;;;5058317;28;20028;-79
2023/07/21 15:12:38;;;;;;;6.05;3.65;;;;;;;;;;5076476;28;20032;-78
2023/07/21 15:15:06;;;;;;;6.45;3.17;;;;;;;;;;5078102;28;20067;-78
2023/07/21 15:17:34;;;;;;;4.90;3.30;;;;;;;;;;5059435;28;20028;-78
2023/07/21 15:20:00;;;;;;;5.38;3.85;;;;;;;;;;5073011;28;20875;-78
2023/07/21 15:23:32;;;;;;;7.03;3.60;;;;;;;;;;5053327;28;20036;-78
2023/07/21 15:25:33;;;;;;;7.55;3.50;;;;;;;;;;5045311;28;20074;-78
2023/07/21 15:27:58;;;;;;;5.18;3.60;;;;;;;;;;5068138;28;20644;-78
2023/07/21 15:31:07;;;;;;;7.88;3.95;;;;;;;;;;5051388;28;20115;-78
2023/07/21 15:33:33;;;;;;;7.22;3.78;;;;;;;;;;5072940;28;20044;-78
2023/07/21 15:36:01;;;;;;;6.25;3.90;;;;;;;;;;5052088;28;20040;-78
2023/07/21 15:38:28;;;;;;;7.07;4.28;;;;;;;;;;5075487;28;20051;-78
2023/07/21 15:40:57;;;;;;;6.00;3.72;;;;;;;;;;5062523;28;20175;-77
2023/07/21 15:43:23;;;;;;;6.78;4.13;;;;;;;;;;5056100;28;20046;-78
2023/07/21 15:45:51;;;;;;;5.47;3.53;;;;;;;;;;5050672;28;20618;-78
2023/07/21 15:48:20;;;;;;;6.70;3.75;;;;;;;;;;5043363;28;20064;-78